createdAt,value
2019-05-10T00:00:19.839Z,8.80
2019-05-10T00:03:09.490Z,8.80
2019-05-10T00:05:59.611Z,8.80
2019-05-10T00:08:49.231Z,8.70
2019-05-10T00:11:41.629Z,8.70
2019-05-10T00:14:32.269Z,8.70
2019-05-10T00:17:22.552Z,8.70
2019-05-10T00:19:53.354Z,8.70
2019-05-10T00:22:24.292Z,8.70
2019-05-10T00:25:04.034Z,8.70
2019-05-10T00:27:27.287Z,8.60
2019-05-10T00:29:57.909Z,8.60
2019-05-10T00:32:28.574Z,8.60
2019-05-10T00:34:59.287Z,8.60
2019-05-10T00:37:30.022Z,8.60
2019-05-10T00:40:00.643Z,8.60
2019-05-10T00:42:31.284Z,8.60
2019-05-10T00:45:01.837Z,8.60
2019-05-10T00:47:32.560Z,8.60
2019-05-10T00:50:03.275Z,8.60
2019-05-10T00:52:33.815Z,8.60
2019-05-10T00:55:17.950Z,8.60
2019-05-10T00:57:37.537Z,8.70
2019-05-10T01:00:10.019Z,8.70
2019-05-10T01:02:40.642Z,8.70
2019-05-10T01:05:11.265Z,8.70
2019-05-10T01:07:41.910Z,8.70
2019-05-10T01:10:12.677Z,8.70
2019-05-10T01:12:43.139Z,8.70
2019-05-10T01:15:14.152Z,8.70
2019-05-10T01:17:44.777Z,8.70
2019-05-10T01:20:15.781Z,8.80
2019-05-10T01:22:46.320Z,8.80
2019-05-10T01:25:16.941Z,8.90
2019-05-10T01:27:48.594Z,8.90
2019-05-10T01:30:21.193Z,8.80
2019-05-10T01:32:51.886Z,8.80
2019-05-10T01:35:22.419Z,8.80
2019-05-10T01:37:53.012Z,8.80
2019-05-10T01:40:23.597Z,8.80
2019-05-10T01:42:54.696Z,8.80
2019-05-10T01:45:25.363Z,8.80
2019-05-10T01:47:56.096Z,8.80
2019-05-10T01:50:26.729Z,8.80
2019-05-10T01:52:57.314Z,8.90
2019-05-10T01:55:27.950Z,8.90
2019-05-10T01:57:58.517Z,8.90
2019-05-10T02:00:29.240Z,8.90
2019-05-10T02:02:59.886Z,8.80
2019-05-10T02:05:30.630Z,8.80
2019-05-10T02:08:01.221Z,8.80
2019-05-10T02:10:32.061Z,8.70
2019-05-10T02:13:02.741Z,8.70
2019-05-10T02:15:34.433Z,8.60
2019-05-10T02:18:05.106Z,8.60
2019-05-10T02:20:35.760Z,8.50
2019-05-10T02:23:06.844Z,8.50
2019-05-10T02:25:37.519Z,8.50
2019-05-10T02:28:08.128Z,8.40
2019-05-10T02:30:38.669Z,8.40
2019-05-10T02:33:09.204Z,8.40
2019-05-10T02:35:39.839Z,8.30
2019-05-10T02:38:10.401Z,8.30
2019-05-10T02:40:41.074Z,8.30
2019-05-10T02:43:11.583Z,8.30
2019-05-10T02:45:42.097Z,8.30
2019-05-10T02:48:12.600Z,8.30
2019-05-10T02:50:43.342Z,8.30
2019-05-10T02:53:13.861Z,8.30
2019-05-10T02:55:45.320Z,8.20
2019-05-10T02:58:16.129Z,8.30
2019-05-10T03:00:49.021Z,8.20
2019-05-10T03:03:21.703Z,8.20
2019-05-10T03:05:54.154Z,8.20
2019-05-10T03:08:25.491Z,8.20
2019-05-10T03:10:58.064Z,8.30
2019-05-10T03:13:30.078Z,8.30
2019-05-10T03:16:04.448Z,8.30
2019-05-10T03:18:35.018Z,8.40
2019-05-10T03:21:08.938Z,8.40
2019-05-10T03:23:39.661Z,8.50
2019-05-10T03:26:10.282Z,8.60
2019-05-10T03:28:40.808Z,8.60
2019-05-10T03:31:11.544Z,8.70
2019-05-10T03:33:42.933Z,8.80
2019-05-10T03:36:13.557Z,8.80
2019-05-10T03:38:44.844Z,8.90
2019-05-10T03:41:15.508Z,9.00
2019-05-10T03:43:46.417Z,9.10
2019-05-10T03:46:17.101Z,9.10
2019-05-10T03:48:48.019Z,9.20
2019-05-10T03:51:18.649Z,9.30
2019-05-10T03:53:49.599Z,9.40
2019-05-10T03:56:20.433Z,9.50
2019-05-10T03:58:50.989Z,9.50
2019-05-10T04:01:21.541Z,9.70
2019-05-10T04:03:52.173Z,9.80
2019-05-10T04:06:22.721Z,9.90
2019-05-10T04:08:53.381Z,9.90
2019-05-10T04:11:24.077Z,10.00
2019-05-10T04:13:56.283Z,10.10
2019-05-10T04:16:26.851Z,10.20
2019-05-10T04:18:57.403Z,10.30
2019-05-10T04:21:28.178Z,10.30
2019-05-10T04:23:58.791Z,10.40
2019-05-10T04:26:29.523Z,10.50
2019-05-10T04:29:00.265Z,10.50
2019-05-10T04:31:31.146Z,10.50
2019-05-10T04:34:02.260Z,10.50
2019-05-10T04:36:32.827Z,10.70
2019-05-10T04:39:04.344Z,10.80
2019-05-10T04:41:35.017Z,10.90
2019-05-10T04:44:05.778Z,11.00
2019-05-10T04:46:36.438Z,11.00
2019-05-10T04:49:07.263Z,11.10
2019-05-10T04:51:37.988Z,11.20
2019-05-10T04:54:08.623Z,11.30
2019-05-10T04:56:39.259Z,11.40
2019-05-10T04:59:09.999Z,11.50
2019-05-10T05:01:40.775Z,11.70
2019-05-10T05:04:11.371Z,11.70
2019-05-10T05:06:41.926Z,11.70
2019-05-10T05:09:12.620Z,11.60
2019-05-10T05:11:43.578Z,11.60
2019-05-10T05:14:14.091Z,11.60
2019-05-10T05:16:45.895Z,11.60
2019-05-10T05:19:16.712Z,11.60
2019-05-10T05:21:47.672Z,11.60
2019-05-10T05:24:23.064Z,11.60
2019-05-10T05:26:50.839Z,11.60
2019-05-10T05:29:21.773Z,11.70
2019-05-10T05:31:54.200Z,11.70
2019-05-10T05:34:25.924Z,11.90
2019-05-10T05:36:56.623Z,11.80
2019-05-10T05:39:27.381Z,11.90
2019-05-10T05:41:57.994Z,12.00
2019-05-10T05:44:29.858Z,12.10
2019-05-10T05:47:04.446Z,12.00
2019-05-10T05:49:33.177Z,12.10
2019-05-10T05:52:03.853Z,12.20
2019-05-10T05:54:34.493Z,12.10
2019-05-10T05:57:05.158Z,12.10
2019-05-10T05:59:35.822Z,12.10
2019-05-10T06:02:07.450Z,12.20
2019-05-10T06:04:40.872Z,12.20
2019-05-10T06:07:10.983Z,12.30
2019-05-10T06:09:41.607Z,12.20
2019-05-10T06:12:12.564Z,12.30
2019-05-10T06:14:49.961Z,12.40
2019-05-10T06:17:16.752Z,12.50
2019-05-10T06:19:47.358Z,12.50
2019-05-10T06:22:17.908Z,12.50
2019-05-10T06:24:52.353Z,12.60
2019-05-10T06:27:20.590Z,12.60
2019-05-10T06:29:51.268Z,12.50
2019-05-10T06:32:21.869Z,12.70
2019-05-10T06:34:52.471Z,12.90
2019-05-10T06:37:23.118Z,13.10
2019-05-10T06:39:53.762Z,13.10
2019-05-10T06:42:28.710Z,13.20
2019-05-10T06:44:56.743Z,13.20
2019-05-10T06:47:27.272Z,13.20
2019-05-10T06:49:57.884Z,13.40
2019-05-10T06:52:29.806Z,13.60
2019-05-10T06:55:00.651Z,13.80
2019-05-10T06:57:31.278Z,13.90
2019-05-10T07:00:05.975Z,14.40
2019-05-10T07:02:34.296Z,14.50
2019-05-10T07:05:05.087Z,14.60
2019-05-10T07:07:44.105Z,14.90
2019-05-10T07:10:17.666Z,14.90
2019-05-10T07:12:41.101Z,14.80
2019-05-10T07:15:11.868Z,14.90
2019-05-10T07:17:46.985Z,15.10
2019-05-10T07:20:14.858Z,15.50
2019-05-10T07:22:45.396Z,15.50
2019-05-10T07:25:16.019Z,15.60
2019-05-10T07:27:50.162Z,15.90
2019-05-10T07:30:30.314Z,16.00
2019-05-10T07:33:02.424Z,15.90
2019-05-10T07:35:36.679Z,15.90
2019-05-10T07:38:06.423Z,15.90
2019-05-10T07:40:37.114Z,16.10
2019-05-10T07:43:07.926Z,16.10
2019-05-10T07:45:38.527Z,16.10
2019-05-10T07:48:10.381Z,16.30
2019-05-10T07:50:42.238Z,16.40
2019-05-10T07:53:16.543Z,16.60
2019-05-10T07:55:47.025Z,16.30
2019-05-10T07:58:17.810Z,16.40
2019-05-10T08:00:48.420Z,16.40
2019-05-10T08:03:23.692Z,16.50
2019-05-10T08:05:56.947Z,16.50
2019-05-10T08:08:24.071Z,16.50
2019-05-10T08:10:54.941Z,16.50
2019-05-10T08:13:25.750Z,16.50
2019-05-10T08:15:56.493Z,16.40
2019-05-10T08:18:29.306Z,16.30
2019-05-10T08:21:05.135Z,16.20
2019-05-10T08:23:33.292Z,15.80
2019-05-10T08:26:04.676Z,15.60
2019-05-10T08:28:38.672Z,15.60
2019-05-10T08:31:08.632Z,15.80
2019-05-10T08:33:46.349Z,16.10
2019-05-10T08:36:12.203Z,16.20
2019-05-10T08:38:46.726Z,16.10
2019-05-10T08:41:18.354Z,15.80
2019-05-10T08:43:49.222Z,16.10
2019-05-10T08:46:29.218Z,16.20
2019-05-10T08:48:53.799Z,16.00
2019-05-10T08:51:24.643Z,15.90
2019-05-10T08:53:58.177Z,15.90
2019-05-10T08:56:27.428Z,15.70
2019-05-10T08:58:58.188Z,15.30
2019-05-10T09:01:30.571Z,15.00
2019-05-10T09:04:06.621Z,14.80
2019-05-10T09:06:33.818Z,14.70
2019-05-10T09:09:08.532Z,14.80
2019-05-10T09:11:44.391Z,14.90
2019-05-10T09:14:20.036Z,14.90
2019-05-10T09:16:56.201Z,15.20
2019-05-10T09:19:27.614Z,15.50
2019-05-10T09:21:54.823Z,15.70
2019-05-10T09:24:24.959Z,16.00
2019-05-10T09:26:57.096Z,16.40
2019-05-10T09:29:35.234Z,16.70
2019-05-10T09:32:06.239Z,16.70
2019-05-10T09:34:36.557Z,16.80
2019-05-10T09:37:07.958Z,17.10
2019-05-10T09:39:39.404Z,17.20
2019-05-10T09:42:24.029Z,17.30
2019-05-10T09:44:45.623Z,17.30
2019-05-10T09:47:15.290Z,17.30
2019-05-10T09:49:56.520Z,17.00
2019-05-10T09:52:18.868Z,16.90
2019-05-10T09:54:49.747Z,16.50
2019-05-10T09:57:20.602Z,16.00
2019-05-10T09:59:52.188Z,15.70
2019-05-10T10:02:26.522Z,15.50
2019-05-10T10:04:58.631Z,15.30
2019-05-10T10:07:29.340Z,15.10
2019-05-10T10:10:00.224Z,14.90
2019-05-10T10:12:30.889Z,14.70
2019-05-10T10:15:01.904Z,14.50
2019-05-10T10:17:40.186Z,14.30
2019-05-10T10:20:08.427Z,14.10
2019-05-10T10:22:38.656Z,13.90
2019-05-10T10:25:09.460Z,13.80
2019-05-10T10:27:40.101Z,13.60
2019-05-10T10:30:14.965Z,13.40
2019-05-10T10:32:44.598Z,13.40
2019-05-10T10:35:20.987Z,13.20
2019-05-10T10:37:48.996Z,13.00
2019-05-10T10:40:19.868Z,12.80
2019-05-10T10:42:50.490Z,12.70
2019-05-10T10:45:21.981Z,12.50
2019-05-10T10:47:52.700Z,12.40
2019-05-10T10:50:23.332Z,12.50
2019-05-10T10:52:54.102Z,12.50
2019-05-10T10:55:32.401Z,12.50
2019-05-10T10:57:57.664Z,12.50
2019-05-10T11:00:34.234Z,12.60
2019-05-10T11:03:06.513Z,12.80
2019-05-10T11:05:37.398Z,12.90
2019-05-10T11:08:08.043Z,13.10
2019-05-10T11:10:40.557Z,13.30
2019-05-10T11:13:18.076Z,13.20
2019-05-10T11:15:43.584Z,13.30
2019-05-10T11:18:14.073Z,13.30
2019-05-10T11:20:49.339Z,13.30
2019-05-10T11:23:17.310Z,13.20
2019-05-10T11:25:54.672Z,13.20
2019-05-10T11:28:21.047Z,13.20
2019-05-10T11:30:51.988Z,13.20
2019-05-10T11:33:29.713Z,13.30
2019-05-10T11:35:57.619Z,13.40
2019-05-10T11:38:27.624Z,13.60
2019-05-10T11:40:58.251Z,13.70
2019-05-10T11:43:31.173Z,13.90
2019-05-10T11:46:01.168Z,14.10
2019-05-10T11:48:37.177Z,14.30
2019-05-10T11:51:05.790Z,14.70
2019-05-10T11:53:36.766Z,15.10
2019-05-10T11:56:07.785Z,15.50
2019-05-10T11:58:49.053Z,16.00
2019-05-10T12:01:17.692Z,16.50
2019-05-10T12:03:44.582Z,16.90
2019-05-10T12:06:15.209Z,17.50
2019-05-10T12:08:46.099Z,18.10
2019-05-10T12:11:29.428Z,18.80
2019-05-10T12:13:56.800Z,19.60
2019-05-10T12:16:21.636Z,20.10
2019-05-10T12:19:17.053Z,20.40
2019-05-10T12:21:24.877Z,20.90
2019-05-10T12:23:56.715Z,21.00
2019-05-10T12:29:11.513Z,20.50
2019-05-10T12:31:32.372Z,20.10
2019-05-10T12:34:09.247Z,19.50
2019-05-10T12:36:35.422Z,18.80
2019-05-10T12:39:07.634Z,18.40
2019-05-10T12:41:39.855Z,17.60
2019-05-10T12:44:11.276Z,17.00
2019-05-10T12:46:42.373Z,16.50
2019-05-10T12:49:13.125Z,16.00
2019-05-10T12:51:43.740Z,15.70
2019-05-10T12:54:18.551Z,15.50
2019-05-10T12:56:47.735Z,15.40
2019-05-10T12:59:18.577Z,15.30
2019-05-10T13:01:49.273Z,15.20
2019-05-10T13:04:23.247Z,15.30
2019-05-10T13:06:52.276Z,15.40
2019-05-10T13:09:36.421Z,15.60
2019-05-10T13:12:03.100Z,15.90
2019-05-10T13:14:29.166Z,16.10
2019-05-10T13:17:03.888Z,16.30
2019-05-10T13:19:35.195Z,16.40
2019-05-10T13:22:07.432Z,16.60
2019-05-10T13:24:38.606Z,16.70
2019-05-10T13:27:09.455Z,16.70
2019-05-10T13:29:40.727Z,17.00
2019-05-10T13:32:14.755Z,17.10
2019-05-10T13:34:44.888Z,17.20
2019-05-10T13:37:23.170Z,17.20
2019-05-10T13:39:48.022Z,17.10
2019-05-10T13:42:18.775Z,17.00
2019-05-10T13:44:49.805Z,16.80
2019-05-10T13:47:20.883Z,16.60
2019-05-10T13:49:52.587Z,16.50
2019-05-10T13:52:29.704Z,16.60
2019-05-10T13:54:57.017Z,16.80
2019-05-10T13:57:27.781Z,16.80
2019-05-10T14:00:01.847Z,17.00
2019-05-10T14:02:34.258Z,17.20
2019-05-10T14:05:03.096Z,17.30
2019-05-10T14:07:33.689Z,17.50
2019-05-10T14:10:05.249Z,17.70
2019-05-10T14:12:35.872Z,17.80
2019-05-10T14:15:11.283Z,17.90
2019-05-10T14:17:39.921Z,17.90
2019-05-10T14:20:19.517Z,18.00
2019-05-10T14:22:48.449Z,18.00
2019-05-10T14:25:15.770Z,18.10
2019-05-10T14:27:46.523Z,18.20
2019-05-10T14:30:18.203Z,18.70
2019-05-10T14:32:49.011Z,19.50
2019-05-10T14:35:22.305Z,20.70
2019-05-10T14:37:52.514Z,21.80
2019-05-10T14:40:31.027Z,22.60
2019-05-10T14:42:55.912Z,22.90
2019-05-10T14:45:26.719Z,23.30
2019-05-10T14:47:57.573Z,23.50
2019-05-10T14:50:28.730Z,23.80
2019-05-10T14:53:00.279Z,24.10
2019-05-10T14:55:34.770Z,23.90
2019-05-10T14:58:03.249Z,23.60
2019-05-10T15:00:34.149Z,23.20
2019-05-10T15:03:04.884Z,23.00
2019-05-10T15:05:36.605Z,22.90
2019-05-10T15:08:07.418Z,22.70
2019-05-10T15:10:39.728Z,23.20
2019-05-10T15:13:10.575Z,23.60
2019-05-10T15:15:41.239Z,24.20
2019-05-10T15:18:11.945Z,24.00
2019-05-10T15:20:42.638Z,23.60
2019-05-10T15:23:13.438Z,23.10
2019-05-10T15:25:56.447Z,22.70
2019-05-10T15:28:16.570Z,22.60
2019-05-10T15:30:52.206Z,22.20
2019-05-10T15:33:19.535Z,21.90
2019-05-10T15:35:51.890Z,21.80
2019-05-10T15:38:22.851Z,21.50
2019-05-10T15:40:55.873Z,21.40
2019-05-10T15:43:26.573Z,21.40
2019-05-10T15:45:57.379Z,21.30
2019-05-10T15:48:28.075Z,21.30
2019-05-10T15:50:58.952Z,21.30
2019-05-10T15:53:29.560Z,21.50
2019-05-10T15:56:03.973Z,21.40
2019-05-10T15:58:36.605Z,21.30
2019-05-10T16:01:05.014Z,21.10
2019-05-10T16:03:35.806Z,20.80
2019-05-10T16:06:06.639Z,20.80
2019-05-10T16:08:37.429Z,20.80
2019-05-10T16:11:17.525Z,21.00
2019-05-10T16:13:41.839Z,21.10
2019-05-10T16:16:12.605Z,21.40
2019-05-10T16:18:43.237Z,21.70
2019-05-10T16:21:15.105Z,22.30
2019-05-10T16:23:48.175Z,22.90
2019-05-10T16:26:22.854Z,23.40
2019-05-10T16:28:53.164Z,23.90
2019-05-10T16:31:23.612Z,24.10
2019-05-10T16:33:55.734Z,24.50
2019-05-10T16:36:28.493Z,24.70
2019-05-10T16:39:01.601Z,24.40
2019-05-10T16:41:31.754Z,24.10
2019-05-10T16:44:03.386Z,23.70
2019-05-10T16:46:35.010Z,23.30
2019-05-10T16:49:10.229Z,22.80
2019-05-10T16:51:42.315Z,22.20
2019-05-10T16:54:13.587Z,21.90
2019-05-10T16:56:44.316Z,21.50
2019-05-10T16:59:14.990Z,21.20
2019-05-10T17:01:45.752Z,20.60
2019-05-10T17:04:16.422Z,19.90
2019-05-10T17:06:47.226Z,19.00
2019-05-10T17:09:19.711Z,18.20
2019-05-10T17:11:52.148Z,17.60
2019-05-10T17:14:22.983Z,17.00
2019-05-10T17:16:58.533Z,16.50
2019-05-10T17:19:27.820Z,16.20
2019-05-10T17:21:58.792Z,15.90
2019-05-10T17:24:29.394Z,15.60
2019-05-10T17:27:00.246Z,15.20
2019-05-10T17:29:31.080Z,14.80
2019-05-10T17:32:02.128Z,14.60
2019-05-10T17:34:32.639Z,14.30
2019-05-10T17:37:03.537Z,14.10
2019-05-10T17:39:34.212Z,13.80
2019-05-10T17:42:05.094Z,13.60
2019-05-10T17:44:39.196Z,13.40
2019-05-10T17:47:09.615Z,13.20
2019-05-10T17:49:40.013Z,13.10
2019-05-10T17:52:10.745Z,12.90
2019-05-10T17:54:41.301Z,12.70
2019-05-10T17:57:16.614Z,12.40
2019-05-10T17:59:46.970Z,12.20
2019-05-10T18:02:17.678Z,12.00
2019-05-10T18:04:48.429Z,11.80
2019-05-10T18:07:19.054Z,11.60
2019-05-10T18:09:49.787Z,11.30
2019-05-10T18:12:26.124Z,11.10
2019-05-10T18:14:55.765Z,10.90
2019-05-10T18:17:25.899Z,10.70
2019-05-10T18:20:02.381Z,10.60
2019-05-10T18:22:41.857Z,10.40
2019-05-10T18:25:03.401Z,10.30
2019-05-10T18:27:34.238Z,10.10
2019-05-10T18:30:05.041Z,10.00
2019-05-10T18:32:37.120Z,9.90
2019-05-10T18:35:14.749Z,9.80
2019-05-10T18:37:58.752Z,9.70
2019-05-10T18:40:31.779Z,9.60
2019-05-10T18:43:03.719Z,9.40
2019-05-10T18:45:31.125Z,9.30
2019-05-10T18:48:02.238Z,9.20
2019-05-10T18:50:32.866Z,9.10
2019-05-10T18:53:03.660Z,9.00
2019-05-10T18:55:34.514Z,9.00
2019-05-10T18:58:05.469Z,8.90
2019-05-10T19:00:36.294Z,8.90
2019-05-10T19:03:07.769Z,8.80
2019-05-10T19:05:42.051Z,8.80
2019-05-10T19:08:15.668Z,8.70
2019-05-10T19:10:47.214Z,8.70
2019-05-10T19:13:20.832Z,8.60
2019-05-10T19:15:56.223Z,8.50
2019-05-10T19:18:28.323Z,8.40
2019-05-10T19:21:04.061Z,8.40
2019-05-10T19:23:35.392Z,8.30
2019-05-10T19:26:06.468Z,8.30
2019-05-10T19:28:39.150Z,8.30
2019-05-10T19:31:10.415Z,8.30
2019-05-10T19:33:41.755Z,8.30
2019-05-10T19:36:14.381Z,8.20
2019-05-10T19:38:45.888Z,8.30
2019-05-10T19:41:20.320Z,8.20
2019-05-10T19:43:56.022Z,8.20
2019-05-10T19:46:39.216Z,8.20
2019-05-10T19:49:13.178Z,8.20
2019-05-10T19:51:48.658Z,8.30
2019-05-10T19:54:19.620Z,8.40
2019-05-10T19:56:50.086Z,8.30
2019-05-10T19:59:20.978Z,8.20
2019-05-10T20:01:51.696Z,8.10
2019-05-10T20:04:22.290Z,8.10
2019-05-10T20:06:53.174Z,8.00
2019-05-10T20:09:24.704Z,8.10
2019-05-10T20:11:55.594Z,8.10
2019-05-10T20:14:28.419Z,8.10
2019-05-10T20:16:59.562Z,8.10
2019-05-10T20:19:30.780Z,8.20
2019-05-10T20:22:02.189Z,8.20
2019-05-10T20:24:33.849Z,8.30
2019-05-10T20:27:04.682Z,8.30
2019-05-10T20:29:38.008Z,8.40
2019-05-10T20:32:08.970Z,8.40
2019-05-10T20:34:40.225Z,8.40
2019-05-10T20:37:10.811Z,8.40
2019-05-10T20:39:42.183Z,8.40
2019-05-10T20:42:13.141Z,8.40
2019-05-10T20:44:43.858Z,8.40
2019-05-10T20:47:14.443Z,8.40
2019-05-10T20:49:45.210Z,8.30
2019-05-10T20:52:15.822Z,8.30
2019-05-10T20:54:46.691Z,8.20
2019-05-10T20:57:17.440Z,8.20
2019-05-10T20:59:48.874Z,8.20
2019-05-10T21:02:20.604Z,8.20
2019-05-10T21:04:51.266Z,8.20
2019-05-10T21:07:21.920Z,8.30
2019-05-10T21:09:52.518Z,8.40
2019-05-10T21:12:23.270Z,8.60
2019-05-10T21:14:54.662Z,8.70
2019-05-10T21:17:25.239Z,8.90
2019-05-10T21:19:56.188Z,9.00
2019-05-10T21:22:26.817Z,9.10
2019-05-10T21:24:57.549Z,9.20
2019-05-10T21:27:28.008Z,9.30
2019-05-10T21:29:58.883Z,9.40
2019-05-10T21:32:29.601Z,9.50
2019-05-10T21:35:00.395Z,9.60
2019-05-10T21:37:30.905Z,9.70
2019-05-10T21:40:01.653Z,9.70
2019-05-10T21:42:32.273Z,9.80
2019-05-10T21:45:02.909Z,9.80
2019-05-10T21:47:33.547Z,9.80
2019-05-10T21:50:06.332Z,9.80
2019-05-10T21:52:37.021Z,9.80
2019-05-10T21:55:07.650Z,9.80
2019-05-10T21:57:38.379Z,9.80
2019-05-10T22:00:11.610Z,9.70
2019-05-10T22:02:43.805Z,9.60
2019-05-10T22:05:14.578Z,9.50
2019-05-10T22:07:45.258Z,9.40
2019-05-10T22:10:16.921Z,9.30
2019-05-10T22:12:47.534Z,9.20
2019-05-10T22:15:18.367Z,9.20
2019-05-10T22:17:49.078Z,9.10
2019-05-10T22:20:19.921Z,9.10
2019-05-10T22:22:50.578Z,9.00
2019-05-10T22:25:21.199Z,9.00
2019-05-10T22:27:51.815Z,9.00
2019-05-10T22:30:22.783Z,8.90
2019-05-10T22:32:53.295Z,8.90
2019-05-10T22:35:24.030Z,8.90
2019-05-10T22:37:54.590Z,8.90
2019-05-10T22:40:25.252Z,8.90
2019-05-10T22:42:55.800Z,8.90
2019-05-10T22:45:26.438Z,8.90
2019-05-10T22:47:58.114Z,8.90
2019-05-10T22:50:28.750Z,8.90
2019-05-10T22:53:03.699Z,8.90
2019-05-10T22:55:34.508Z,8.90
2019-05-10T22:58:05.158Z,8.90
2019-05-10T23:00:35.790Z,8.90
2019-05-10T23:03:06.617Z,8.90
2019-05-10T23:05:37.132Z,8.90
2019-05-10T23:08:07.634Z,8.90
2019-05-10T23:10:38.310Z,9.00
2019-05-10T23:13:09.039Z,9.00
2019-05-10T23:15:39.660Z,9.00
2019-05-10T23:18:10.325Z,9.00
2019-05-10T23:20:40.933Z,9.00
2019-05-10T23:23:11.451Z,9.00
2019-05-10T23:25:42.189Z,9.00
2019-05-10T23:28:12.767Z,9.10
2019-05-10T23:30:43.589Z,9.10
2019-05-10T23:33:14.090Z,9.10
2019-05-10T23:35:44.611Z,9.10
2019-05-10T23:38:15.228Z,9.10
2019-05-10T23:40:45.828Z,9.00
2019-05-10T23:43:16.424Z,9.00
2019-05-10T23:45:46.983Z,9.00
2019-05-10T23:48:17.604Z,9.10
2019-05-10T23:50:48.089Z,9.10
2019-05-10T23:53:18.814Z,9.10
2019-05-10T23:55:49.339Z,9.10
2019-05-10T23:58:19.935Z,9.10
